sensor_id;sensor_type;location;lat;lon;timestamp;P1;durP1;ratioP1;P2;durP2;ratioP2
7332;SDS011;3707;43.618;25.342;2024-01-06T00:02:00;0.80;;;0.80;;
7332;SDS011;3707;43.618;25.342;2024-01-06T00:04:28;1.10;;;1.10;;
7332;SDS011;3707;43.618;25.342;2024-01-06T00:06:55;1.15;;;1.15;;
7332;SDS011;3707;43.618;25.342;2024-01-06T00:09:21;0.85;;;0.85;;
7332;SDS011;3707;43.618;25.342;2024-01-06T00:11:48;1.27;;;1.27;;
7332;SDS011;3707;43.618;25.342;2024-01-06T00:14:15;1.00;;;1.00;;
7332;SDS011;3707;43.618;25.342;2024-01-06T00:16:42;1.38;;;1.38;;
7332;SDS011;3707;43.618;25.342;2024-01-06T00:19:09;1.92;;;1.83;;
7332;SDS011;3707;43.618;25.342;2024-01-06T00:21:38;1.00;;;1.00;;
7332;SDS011;3707;43.618;25.342;2024-01-06T00:24:05;0.70;;;0.70;;
7332;SDS011;3707;43.618;25.342;2024-01-06T00:26:32;0.60;;;0.60;;
7332;SDS011;3707;43.618;25.342;2024-01-06T00:28:58;0.80;;;0.80;;
7332;SDS011;3707;43.618;25.342;2024-01-06T00:31:25;1.58;;;1.55;;
7332;SDS011;3707;43.618;25.342;2024-01-06T00:33:52;1.88;;;1.88;;
7332;SDS011;3707;43.618;25.342;2024-01-06T00:36:19;0.90;;;0.90;;
7332;SDS011;3707;43.618;25.342;2024-01-06T00:38:47;1.33;;;1.33;;
7332;SDS011;3707;43.618;25.342;2024-01-06T00:41:14;1.00;;;1.00;;
7332;SDS011;3707;43.618;25.342;2024-01-06T00:43:41;1.77;;;1.67;;
7332;SDS011;3707;43.618;25.342;2024-01-06T00:46:07;1.00;;;1.00;;
7332;SDS011;3707;43.618;25.342;2024-01-06T00:48:34;0.70;;;0.70;;
7332;SDS011;3707;43.618;25.342;2024-01-06T00:51:01;0.90;;;0.90;;
7332;SDS011;3707;43.618;25.342;2024-01-06T00:53:28;0.85;;;0.85;;
7332;SDS011;3707;43.618;25.342;2024-01-06T00:55:56;1.58;;;1.58;;
7332;SDS011;3707;43.618;25.342;2024-01-06T00:58:23;1.00;;;1.00;;
7332;SDS011;3707;43.618;25.342;2024-01-06T01:00:50;1.37;;;1.30;;
7332;SDS011;3707;43.618;25.342;2024-01-06T01:03:16;1.53;;;1.53;;
7332;SDS011;3707;43.618;25.342;2024-01-06T01:05:43;1.55;;;1.20;;
7332;SDS011;3707;43.618;25.342;2024-01-06T01:08:10;1.00;;;1.00;;
7332;SDS011;3707;43.618;25.342;2024-01-06T01:10:37;1.40;;;1.40;;
7332;SDS011;3707;43.618;25.342;2024-01-06T01:13:05;0.90;;;0.90;;
7332;SDS011;3707;43.618;25.342;2024-01-06T01:15:32;1.23;;;1.23;;
7332;SDS011;3707;43.618;25.342;2024-01-06T01:18:00;0.80;;;0.80;;
7332;SDS011;3707;43.618;25.342;2024-01-06T01:20:26;3.03;;;2.83;;
7332;SDS011;3707;43.618;25.342;2024-01-06T01:22:53;0.93;;;0.90;;
7332;SDS011;3707;43.618;25.342;2024-01-06T01:25:20;1.15;;;1.15;;
7332;SDS011;3707;43.618;25.342;2024-01-06T01:27:47;1.25;;;1.25;;
7332;SDS011;3707;43.618;25.342;2024-01-06T01:30:15;0.98;;;0.98;;
7332;SDS011;3707;43.618;25.342;2024-01-06T01:32:42;0.87;;;0.87;;
7332;SDS011;3707;43.618;25.342;2024-01-06T01:35:09;1.20;;;1.20;;
7332;SDS011;3707;43.618;25.342;2024-01-06T01:37:36;1.00;;;1.00;;
7332;SDS011;3707;43.618;25.342;2024-01-06T01:40:03;1.23;;;1.23;;
7332;SDS011;3707;43.618;25.342;2024-01-06T01:42:30;1.98;;;1.77;;
7332;SDS011;3707;43.618;25.342;2024-01-06T01:44:57;0.80;;;0.80;;
7332;SDS011;3707;43.618;25.342;2024-01-06T01:47:25;1.30;;;1.30;;
7332;SDS011;3707;43.618;25.342;2024-01-06T01:49:52;0.95;;;0.95;;
7332;SDS011;3707;43.618;25.342;2024-01-06T01:52:21;1.00;;;1.00;;
7332;SDS011;3707;43.618;25.342;2024-01-06T01:54:48;1.10;;;1.10;;
7332;SDS011;3707;43.618;25.342;2024-01-06T01:57:15;1.20;;;1.20;;
7332;SDS011;3707;43.618;25.342;2024-01-06T01:59:43;0.77;;;0.77;;
7332;SDS011;3707;43.618;25.342;2024-01-06T02:02:09;1.85;;;1.83;;
7332;SDS011;3707;43.618;25.342;2024-01-06T02:04:39;0.90;;;0.90;;
7332;SDS011;3707;43.618;25.342;2024-01-06T02:07:06;0.80;;;0.80;;
7332;SDS011;3707;43.618;25.342;2024-01-06T02:09:33;1.00;;;1.00;;
7332;SDS011;3707;43.618;25.342;2024-01-06T02:11:59;2.13;;;2.10;;
7332;SDS011;3707;43.618;25.342;2024-01-06T02:14:26;1.00;;;1.00;;
7332;SDS011;3707;43.618;25.342;2024-01-06T02:16:53;0.80;;;0.80;;
7332;SDS011;3707;43.618;25.342;2024-01-06T02:19:20;1.40;;;1.40;;
7332;SDS011;3707;43.618;25.342;2024-01-06T02:21:50;1.35;;;1.35;;
7332;SDS011;3707;43.618;25.342;2024-01-06T02:24:18;1.33;;;1.33;;
7332;SDS011;3707;43.618;25.342;2024-01-06T02:26:45;1.15;;;1.15;;
7332;SDS011;3707;43.618;25.342;2024-01-06T02:29:11;0.90;;;0.90;;
7332;SDS011;3707;43.618;25.342;2024-01-06T02:31:38;1.23;;;1.23;;
7332;SDS011;3707;43.618;25.342;2024-01-06T02:34:05;1.10;;;1.10;;
7332;SDS011;3707;43.618;25.342;2024-01-06T02:36:32;1.10;;;1.10;;
7332;SDS011;3707;43.618;25.342;2024-01-06T02:39:00;1.20;;;1.20;;
7332;SDS011;3707;43.618;25.342;2024-01-06T02:41:27;0.85;;;0.85;;
7332;SDS011;3707;43.618;25.342;2024-01-06T02:43:54;2.80;;;1.15;;
7332;SDS011;3707;43.618;25.342;2024-01-06T02:46:21;0.80;;;0.80;;
7332;SDS011;3707;43.618;25.342;2024-01-06T02:48:48;0.82;;;0.82;;
7332;SDS011;3707;43.618;25.342;2024-01-06T02:51:14;1.00;;;1.00;;
7332;SDS011;3707;43.618;25.342;2024-01-06T02:53:41;0.80;;;0.80;;
7332;SDS011;3707;43.618;25.342;2024-01-06T02:56:11;1.15;;;1.15;;
7332;SDS011;3707;43.618;25.342;2024-01-06T02:58:38;1.98;;;1.88;;
7332;SDS011;3707;43.618;25.342;2024-01-06T03:01:05;0.90;;;0.90;;
7332;SDS011;3707;43.618;25.342;2024-01-06T03:03:32;1.20;;;1.20;;
7332;SDS011;3707;43.618;25.342;2024-01-06T03:05:59;1.15;;;1.13;;
7332;SDS011;3707;43.618;25.342;2024-01-06T03:08:25;1.10;;;1.10;;
7332;SDS011;3707;43.618;25.342;2024-01-06T03:10:52;2.35;;;2.25;;
7332;SDS011;3707;43.618;25.342;2024-01-06T03:13:21;3.55;;;1.20;;
7332;SDS011;3707;43.618;25.342;2024-01-06T03:15:47;1.50;;;1.50;;
7332;SDS011;3707;43.618;25.342;2024-01-06T03:18:14;0.93;;;0.93;;
7332;SDS011;3707;43.618;25.342;2024-01-06T03:20:41;1.02;;;1.02;;
7332;SDS011;3707;43.618;25.342;2024-01-06T03:23:08;1.08;;;1.08;;
7332;SDS011;3707;43.618;25.342;2024-01-06T03:25:35;1.10;;;1.10;;
7332;SDS011;3707;43.618;25.342;2024-01-06T03:28:01;1.17;;;1.17;;
7332;SDS011;3707;43.618;25.342;2024-01-06T03:30:30;1.20;;;1.20;;
7332;SDS011;3707;43.618;25.342;2024-01-06T03:32:56;2.00;;;1.90;;
7332;SDS011;3707;43.618;25.342;2024-01-06T03:35:23;0.80;;;0.80;;
7332;SDS011;3707;43.618;25.342;2024-01-06T03:37:50;1.03;;;1.03;;
7332;SDS011;3707;43.618;25.342;2024-01-06T03:40:17;0.83;;;0.83;;
7332;SDS011;3707;43.618;25.342;2024-01-06T03:42:43;1.20;;;1.20;;
7332;SDS011;3707;43.618;25.342;2024-01-06T03:45:10;1.30;;;1.20;;
7332;SDS011;3707;43.618;25.342;2024-01-06T03:47:38;3.33;;;3.03;;
7332;SDS011;3707;43.618;25.342;2024-01-06T03:50:05;1.13;;;1.13;;
7332;SDS011;3707;43.618;25.342;2024-01-06T03:52:32;3.80;;;2.30;;
7332;SDS011;3707;43.618;25.342;2024-01-06T03:54:59;0.97;;;0.97;;
7332;SDS011;3707;43.618;25.342;2024-01-06T03:57:26;1.10;;;1.10;;
7332;SDS011;3707;43.618;25.342;2024-01-06T03:59:53;1.00;;;1.00;;
7332;SDS011;3707;43.618;25.342;2024-01-06T04:02:20;3.50;;;1.73;;
7332;SDS011;3707;43.618;25.342;2024-01-06T04:04:48;1.47;;;1.47;;
7332;SDS011;3707;43.618;25.342;2024-01-06T04:07:15;1.67;;;1.60;;
7332;SDS011;3707;43.618;25.342;2024-01-06T04:09:42;1.30;;;1.30;;
7332;SDS011;3707;43.618;25.342;2024-01-06T04:12:09;1.00;;;1.00;;
7332;SDS011;3707;43.618;25.342;2024-01-06T04:14:36;1.40;;;1.40;;
7332;SDS011;3707;43.618;25.342;2024-01-06T04:17:03;1.00;;;1.00;;
7332;SDS011;3707;43.618;25.342;2024-01-06T04:19:30;1.10;;;1.10;;
7332;SDS011;3707;43.618;25.342;2024-01-06T04:21:59;1.63;;;1.17;;
7332;SDS011;3707;43.618;25.342;2024-01-06T04:24:26;1.10;;;1.10;;
7332;SDS011;3707;43.618;25.342;2024-01-06T04:26:53;1.38;;;1.38;;
7332;SDS011;3707;43.618;25.342;2024-01-06T04:29:20;1.23;;;1.23;;
7332;SDS011;3707;43.618;25.342;2024-01-06T04:31:46;1.10;;;1.10;;
7332;SDS011;3707;43.618;25.342;2024-01-06T04:34:13;2.67;;;2.57;;
7332;SDS011;3707;43.618;25.342;2024-01-06T04:36:40;0.83;;;0.83;;
7332;SDS011;3707;43.618;25.342;2024-01-06T04:39:08;2.50;;;1.87;;
7332;SDS011;3707;43.618;25.342;2024-01-06T04:41:38;1.50;;;1.50;;
7332;SDS011;3707;43.618;25.342;2024-01-06T04:44:05;1.17;;;1.17;;
7332;SDS011;3707;43.618;25.342;2024-01-06T04:46:32;1.20;;;1.20;;
7332;SDS011;3707;43.618;25.342;2024-01-06T04:48:59;1.00;;;1.00;;
7332;SDS011;3707;43.618;25.342;2024-01-06T04:51:25;1.30;;;1.27;;
7332;SDS011;3707;43.618;25.342;2024-01-06T04:53:52;0.80;;;0.80;;
7332;SDS011;3707;43.618;25.342;2024-01-06T04:56:20;1.07;;;1.07;;
7332;SDS011;3707;43.618;25.342;2024-01-06T04:58:47;1.37;;;1.37;;
7332;SDS011;3707;43.618;25.342;2024-01-06T05:01:14;0.80;;;0.80;;
7332;SDS011;3707;43.618;25.342;2024-01-06T05:03:41;1.20;;;1.20;;
7332;SDS011;3707;43.618;25.342;2024-01-06T05:06:07;0.80;;;0.80;;
7332;SDS011;3707;43.618;25.342;2024-01-06T05:08:35;1.07;;;1.07;;
7332;SDS011;3707;43.618;25.342;2024-01-06T05:11:05;1.47;;;1.47;;
7332;SDS011;3707;43.618;25.342;2024-01-06T05:13:33;1.10;;;1.10;;
7332;SDS011;3707;43.618;25.342;2024-01-06T05:16:00;1.10;;;1.10;;
7332;SDS011;3707;43.618;25.342;2024-01-06T05:18:27;1.03;;;1.03;;
7332;SDS011;3707;43.618;25.342;2024-01-06T05:20:53;1.20;;;1.20;;
7332;SDS011;3707;43.618;25.342;2024-01-06T05:23:21;0.90;;;0.90;;
7332;SDS011;3707;43.618;25.342;2024-01-06T05:25:48;0.77;;;0.77;;
7332;SDS011;3707;43.618;25.342;2024-01-06T05:28:15;1.90;;;1.40;;
7332;SDS011;3707;43.618;25.342;2024-01-06T05:30:43;1.10;;;1.10;;
7332;SDS011;3707;43.618;25.342;2024-01-06T05:33:10;1.10;;;1.10;;
7332;SDS011;3707;43.618;25.342;2024-01-06T05:35:38;0.90;;;0.90;;
7332;SDS011;3707;43.618;25.342;2024-01-06T05:38:03;0.80;;;0.80;;
7332;SDS011;3707;43.618;25.342;2024-01-06T05:40:30;1.10;;;1.10;;
7332;SDS011;3707;43.618;25.342;2024-01-06T05:42:57;3.13;;;1.40;;
7332;SDS011;3707;43.618;25.342;2024-01-06T05:45:24;0.90;;;0.90;;
7332;SDS011;3707;43.618;25.342;2024-01-06T05:47:52;1.00;;;1.00;;
7332;SDS011;3707;43.618;25.342;2024-01-06T05:50:19;0.90;;;0.90;;
7332;SDS011;3707;43.618;25.342;2024-01-06T05:52:45;1.40;;;1.40;;
7332;SDS011;3707;43.618;25.342;2024-01-06T05:55:14;1.30;;;1.30;;
7332;SDS011;3707;43.618;25.342;2024-01-06T05:57:41;1.00;;;1.00;;
7332;SDS011;3707;43.618;25.342;2024-01-06T06:00:08;0.87;;;0.87;;
7332;SDS011;3707;43.618;25.342;2024-01-06T06:02:36;2.30;;;2.17;;
7332;SDS011;3707;43.618;25.342;2024-01-06T06:05:05;10.63;;;2.43;;
7332;SDS011;3707;43.618;25.342;2024-01-06T06:07:32;2.07;;;1.97;;
7332;SDS011;3707;43.618;25.342;2024-01-06T06:10:04;2.40;;;2.30;;
7332;SDS011;3707;43.618;25.342;2024-01-06T06:12:32;2.30;;;2.03;;
7332;SDS011;3707;43.618;25.342;2024-01-06T06:14:59;1.80;;;1.70;;
7332;SDS011;3707;43.618;25.342;2024-01-06T06:17:26;1.40;;;1.40;;
7332;SDS011;3707;43.618;25.342;2024-01-06T06:19:52;1.23;;;1.23;;
7332;SDS011;3707;43.618;25.342;2024-01-06T06:22:21;0.80;;;0.80;;
7332;SDS011;3707;43.618;25.342;2024-01-06T06:24:48;3.00;;;2.73;;
7332;SDS011;3707;43.618;25.342;2024-01-06T06:27:15;4.00;;;2.33;;
7332;SDS011;3707;43.618;25.342;2024-01-06T06:29:41;2.70;;;2.60;;
7332;SDS011;3707;43.618;25.342;2024-01-06T06:32:08;7.63;;;3.43;;
7332;SDS011;3707;43.618;25.342;2024-01-06T06:34:35;1.27;;;1.27;;
7332;SDS011;3707;43.618;25.342;2024-01-06T06:37:02;1.07;;;1.07;;
7332;SDS011;3707;43.618;25.342;2024-01-06T06:39:30;2.20;;;1.93;;
7332;SDS011;3707;43.618;25.342;2024-01-06T06:41:59;0.90;;;0.90;;
7332;SDS011;3707;43.618;25.342;2024-01-06T06:44:26;2.57;;;2.47;;
7332;SDS011;3707;43.618;25.342;2024-01-06T06:46:53;19.23;;;1.83;;
7332;SDS011;3707;43.618;25.342;2024-01-06T06:49:20;1.23;;;1.23;;
7332;SDS011;3707;43.618;25.342;2024-01-06T06:51:46;1.80;;;1.80;;
7332;SDS011;3707;43.618;25.342;2024-01-06T06:54:13;2.93;;;2.73;;
7332;SDS011;3707;43.618;25.342;2024-01-06T06:56:42;1.87;;;1.77;;
7332;SDS011;3707;43.618;25.342;2024-01-06T06:59:09;1.80;;;1.70;;
7332;SDS011;3707;43.618;25.342;2024-01-06T07:01:37;1.17;;;1.17;;
7332;SDS011;3707;43.618;25.342;2024-01-06T07:04:04;2.03;;;1.83;;
7332;SDS011;3707;43.618;25.342;2024-01-06T07:06:31;1.70;;;1.60;;
7332;SDS011;3707;43.618;25.342;2024-01-06T07:08:57;3.03;;;2.83;;
7332;SDS011;3707;43.618;25.342;2024-01-06T07:11:25;4.80;;;4.43;;
7332;SDS011;3707;43.618;25.342;2024-01-06T07:13:54;3.67;;;2.13;;
7332;SDS011;3707;43.618;25.342;2024-01-06T07:16:20;2.07;;;1.97;;
7332;SDS011;3707;43.618;25.342;2024-01-06T07:18:47;2.00;;;1.90;;
7332;SDS011;3707;43.618;25.342;2024-01-06T07:21:14;2.00;;;1.98;;
7332;SDS011;3707;43.618;25.342;2024-01-06T07:23:41;3.30;;;3.20;;
7332;SDS011;3707;43.618;25.342;2024-01-06T07:26:08;3.40;;;2.60;;
7332;SDS011;3707;43.618;25.342;2024-01-06T07:28:35;2.63;;;2.43;;
7332;SDS011;3707;43.618;25.342;2024-01-06T07:31:03;1.08;;;1.08;;
7332;SDS011;3707;43.618;25.342;2024-01-06T07:33:30;3.08;;;2.88;;
7332;SDS011;3707;43.618;25.342;2024-01-06T07:35:57;1.50;;;1.50;;
7332;SDS011;3707;43.618;25.342;2024-01-06T07:38:24;1.38;;;1.33;;
7332;SDS011;3707;43.618;25.342;2024-01-06T07:40:51;2.72;;;2.60;;
7332;SDS011;3707;43.618;25.342;2024-01-06T07:43:19;4.63;;;4.22;;
7332;SDS011;3707;43.618;25.342;2024-01-06T07:45:46;24.07;;;3.47;;
7332;SDS011;3707;43.618;25.342;2024-01-06T07:48:14;4.93;;;2.55;;
7332;SDS011;3707;43.618;25.342;2024-01-06T07:50:41;3.00;;;1.40;;
7332;SDS011;3707;43.618;25.342;2024-01-06T07:53:08;2.38;;;2.28;;
7332;SDS011;3707;43.618;25.342;2024-01-06T07:55:35;1.93;;;1.93;;
7332;SDS011;3707;43.618;25.342;2024-01-06T07:58:02;1.88;;;1.85;;
7332;SDS011;3707;43.618;25.342;2024-01-06T08:00:29;3.10;;;2.65;;
7332;SDS011;3707;43.618;25.342;2024-01-06T08:02:56;3.75;;;3.45;;
7332;SDS011;3707;43.618;25.342;2024-01-06T08:05:24;3.08;;;2.90;;
7332;SDS011;3707;43.618;25.342;2024-01-06T08:07:51;4.07;;;2.80;;
7332;SDS011;3707;43.618;25.342;2024-01-06T08:10:18;2.33;;;1.92;;
7332;SDS011;3707;43.618;25.342;2024-01-06T08:12:46;3.92;;;1.33;;
7332;SDS011;3707;43.618;25.342;2024-01-06T08:15:13;22.67;;;9.02;;
7332;SDS011;3707;43.618;25.342;2024-01-06T08:17:40;14.07;;;5.00;;
7332;SDS011;3707;43.618;25.342;2024-01-06T08:20:08;1.10;;;1.10;;
7332;SDS011;3707;43.618;25.342;2024-01-06T08:22:37;0.88;;;0.88;;
7332;SDS011;3707;43.618;25.342;2024-01-06T08:25:04;0.88;;;0.88;;
7332;SDS011;3707;43.618;25.342;2024-01-06T08:27:32;0.80;;;0.80;;
7332;SDS011;3707;43.618;25.342;2024-01-06T08:29:59;0.80;;;0.80;;
7332;SDS011;3707;43.618;25.342;2024-01-06T08:32:26;1.15;;;1.15;;
7332;SDS011;3707;43.618;25.342;2024-01-06T08:34:53;0.80;;;0.80;;
7332;SDS011;3707;43.618;25.342;2024-01-06T08:37:20;2.72;;;2.10;;
7332;SDS011;3707;43.618;25.342;2024-01-06T08:39:48;0.80;;;0.80;;
7332;SDS011;3707;43.618;25.342;2024-01-06T08:42:14;2.08;;;1.98;;
7332;SDS011;3707;43.618;25.342;2024-01-06T08:44:41;1.23;;;1.23;;
7332;SDS011;3707;43.618;25.342;2024-01-06T08:47:09;2.37;;;2.27;;
7332;SDS011;3707;43.618;25.342;2024-01-06T08:49:36;0.80;;;0.80;;
7332;SDS011;3707;43.618;25.342;2024-01-06T08:52:03;0.80;;;0.80;;
7332;SDS011;3707;43.618;25.342;2024-01-06T08:54:30;1.23;;;1.23;;
7332;SDS011;3707;43.618;25.342;2024-01-06T08:56:58;1.58;;;1.20;;
7332;SDS011;3707;43.618;25.342;2024-01-06T08:59:25;0.88;;;0.88;;
7332;SDS011;3707;43.618;25.342;2024-01-06T09:01:52;1.40;;;1.40;;
7332;SDS011;3707;43.618;25.342;2024-01-06T09:04:19;1.00;;;1.00;;
7332;SDS011;3707;43.618;25.342;2024-01-06T09:06:45;2.10;;;2.00;;
7332;SDS011;3707;43.618;25.342;2024-01-06T09:09:13;1.05;;;1.05;;
7332;SDS011;3707;43.618;25.342;2024-01-06T09:11:40;2.08;;;2.00;;
7332;SDS011;3707;43.618;25.342;2024-01-06T09:14:08;0.85;;;0.85;;
7332;SDS011;3707;43.618;25.342;2024-01-06T09:16:35;2.08;;;1.98;;
7332;SDS011;3707;43.618;25.342;2024-01-06T09:19:02;1.38;;;1.38;;
7332;SDS011;3707;43.618;25.342;2024-01-06T09:21:29;1.25;;;1.15;;
7332;SDS011;3707;43.618;25.342;2024-01-06T09:23:56;1.42;;;1.42;;
7332;SDS011;3707;43.618;25.342;2024-01-06T09:26:23;1.80;;;1.80;;
7332;SDS011;3707;43.618;25.342;2024-01-06T09:28:50;0.90;;;0.90;;
7332;SDS011;3707;43.618;25.342;2024-01-06T09:31:18;1.88;;;1.50;;
7332;SDS011;3707;43.618;25.342;2024-01-06T09:33:44;3.10;;;2.90;;
7332;SDS011;3707;43.618;25.342;2024-01-06T09:36:11;1.48;;;1.48;;
7332;SDS011;3707;43.618;25.342;2024-01-06T09:38:39;1.67;;;1.67;;
7332;SDS011;3707;43.618;25.342;2024-01-06T09:41:05;0.85;;;0.85;;
7332;SDS011;3707;43.618;25.342;2024-01-06T09:43:32;1.35;;;1.35;;
7332;SDS011;3707;43.618;25.342;2024-01-06T09:46:02;1.67;;;1.67;;
7332;SDS011;3707;43.618;25.342;2024-01-06T09:48:35;1.10;;;1.10;;
7332;SDS011;3707;43.618;25.342;2024-01-06T09:51:06;1.30;;;1.30;;
7332;SDS011;3707;43.618;25.342;2024-01-06T09:53:39;2.58;;;2.47;;
7332;SDS011;3707;43.618;25.342;2024-01-06T09:56:13;1.00;;;1.00;;
7332;SDS011;3707;43.618;25.342;2024-01-06T09:58:41;1.00;;;1.00;;
7332;SDS011;3707;43.618;25.342;2024-01-06T10:01:09;2.17;;;2.08;;
7332;SDS011;3707;43.618;25.342;2024-01-06T10:03:38;1.23;;;1.23;;
7332;SDS011;3707;43.618;25.342;2024-01-06T10:06:05;1.17;;;1.17;;
7332;SDS011;3707;43.618;25.342;2024-01-06T10:08:34;1.15;;;1.15;;
7332;SDS011;3707;43.618;25.342;2024-01-06T10:11:01;9.52;;;2.40;;
7332;SDS011;3707;43.618;25.342;2024-01-06T10:13:28;2.05;;;1.98;;
7332;SDS011;3707;43.618;25.342;2024-01-06T10:15:55;1.70;;;1.60;;
7332;SDS011;3707;43.618;25.342;2024-01-06T10:18:22;2.55;;;2.45;;
7332;SDS011;3707;43.618;25.342;2024-01-06T10:20:53;0.90;;;0.90;;
7332;SDS011;3707;43.618;25.342;2024-01-06T10:23:21;3.60;;;3.28;;
7332;SDS011;3707;43.618;25.342;2024-01-06T10:25:51;1.88;;;1.77;;
7332;SDS011;3707;43.618;25.342;2024-01-06T10:28:18;1.02;;;1.02;;
7332;SDS011;3707;43.618;25.342;2024-01-06T10:30:47;0.93;;;0.93;;
7332;SDS011;3707;43.618;25.342;2024-01-06T10:33:14;1.27;;;1.27;;
7332;SDS011;3707;43.618;25.342;2024-01-06T10:35:41;2.05;;;1.95;;
7332;SDS011;3707;43.618;25.342;2024-01-06T10:38:10;1.13;;;1.13;;
7332;SDS011;3707;43.618;25.342;2024-01-06T10:40:37;2.17;;;2.08;;
7332;SDS011;3707;43.618;25.342;2024-01-06T10:43:04;2.35;;;1.98;;
7332;SDS011;3707;43.618;25.342;2024-01-06T10:45:32;1.90;;;1.77;;
7332;SDS011;3707;43.618;25.342;2024-01-06T10:47:59;1.27;;;1.27;;
7332;SDS011;3707;43.618;25.342;2024-01-06T10:50:26;2.25;;;1.92;;
7332;SDS011;3707;43.618;25.342;2024-01-06T10:52:55;1.88;;;1.88;;
7332;SDS011;3707;43.618;25.342;2024-01-06T10:55:25;1.75;;;1.75;;
7332;SDS011;3707;43.618;25.342;2024-01-06T10:57:53;2.35;;;2.15;;
7332;SDS011;3707;43.618;25.342;2024-01-06T11:00:21;2.17;;;2.08;;
7332;SDS011;3707;43.618;25.342;2024-01-06T11:02:48;2.15;;;2.05;;
7332;SDS011;3707;43.618;25.342;2024-01-06T11:05:17;1.95;;;1.85;;
7332;SDS011;3707;43.618;25.342;2024-01-06T11:07:46;2.15;;;2.05;;
7332;SDS011;3707;43.618;25.342;2024-01-06T11:10:17;3.15;;;3.00;;
7332;SDS011;3707;43.618;25.342;2024-01-06T11:12:46;2.95;;;2.58;;
7332;SDS011;3707;43.618;25.342;2024-01-06T11:15:38;2.58;;;2.47;;
7332;SDS011;3707;43.618;25.342;2024-01-06T11:18:06;3.20;;;2.92;;
7332;SDS011;3707;43.618;25.342;2024-01-06T11:20:32;4.40;;;3.65;;
7332;SDS011;3707;43.618;25.342;2024-01-06T11:25:45;8.32;;;2.38;;
7332;SDS011;3707;43.618;25.342;2024-01-06T11:28:13;2.20;;;2.10;;
7332;SDS011;3707;43.618;25.342;2024-01-06T11:30:43;2.47;;;2.05;;
7332;SDS011;3707;43.618;25.342;2024-01-06T11:33:09;4.22;;;3.78;;
7332;SDS011;3707;43.618;25.342;2024-01-06T11:35:37;1.70;;;1.70;;
7332;SDS011;3707;43.618;25.342;2024-01-06T11:38:06;12.45;;;4.45;;
7332;SDS011;3707;43.618;25.342;2024-01-06T11:40:34;1.63;;;1.52;;
7332;SDS011;3707;43.618;25.342;2024-01-06T11:43:02;1.98;;;1.88;;
7332;SDS011;3707;43.618;25.342;2024-01-06T11:45:33;3.15;;;1.90;;
7332;SDS011;3707;43.618;25.342;2024-01-06T11:48:00;2.13;;;1.98;;
7332;SDS011;3707;43.618;25.342;2024-01-06T11:50:29;0.93;;;0.93;;
7332;SDS011;3707;43.618;25.342;2024-01-06T11:52:57;2.63;;;2.30;;
7332;SDS011;3707;43.618;25.342;2024-01-06T11:55:25;1.80;;;1.80;;
7332;SDS011;3707;43.618;25.342;2024-01-06T11:57:54;3.55;;;1.67;;
7332;SDS011;3707;43.618;25.342;2024-01-06T12:00:22;9.27;;;2.38;;
7332;SDS011;3707;43.618;25.342;2024-01-06T12:02:51;2.80;;;2.60;;
7332;SDS011;3707;43.618;25.342;2024-01-06T12:05:22;1.58;;;1.48;;
7332;SDS011;3707;43.618;25.342;2024-01-06T12:07:53;2.67;;;1.80;;
7332;SDS011;3707;43.618;25.342;2024-01-06T12:10:24;2.40;;;2.20;;
7332;SDS011;3707;43.618;25.342;2024-01-06T12:12:56;1.73;;;1.73;;
7332;SDS011;3707;43.618;25.342;2024-01-06T12:15:24;2.03;;;1.92;;
7332;SDS011;3707;43.618;25.342;2024-01-06T12:17:53;2.13;;;2.05;;
7332;SDS011;3707;43.618;25.342;2024-01-06T12:20:21;3.60;;;3.30;;
7332;SDS011;3707;43.618;25.342;2024-01-06T12:22:48;1.35;;;1.35;;
7332;SDS011;3707;43.618;25.342;2024-01-06T12:25:15;1.20;;;1.20;;
7332;SDS011;3707;43.618;25.342;2024-01-06T12:27:42;1.90;;;1.77;;
7332;SDS011;3707;43.618;25.342;2024-01-06T12:30:12;18.35;;;1.75;;
7332;SDS011;3707;43.618;25.342;2024-01-06T12:32:43;1.75;;;1.70;;
7332;SDS011;3707;43.618;25.342;2024-01-06T12:37:41;1.20;;;1.20;;
7332;SDS011;3707;43.618;25.342;2024-01-06T12:40:10;1.27;;;1.27;;
7332;SDS011;3707;43.618;25.342;2024-01-06T12:42:39;1.55;;;1.45;;
7332;SDS011;3707;43.618;25.342;2024-01-06T12:45:07;2.35;;;2.25;;
7332;SDS011;3707;43.618;25.342;2024-01-06T12:47:35;1.17;;;1.17;;
7332;SDS011;3707;43.618;25.342;2024-01-06T12:50:02;1.50;;;1.50;;
7332;SDS011;3707;43.618;25.342;2024-01-06T12:52:31;1.20;;;1.20;;
7332;SDS011;3707;43.618;25.342;2024-01-06T12:54:59;1.80;;;1.70;;
7332;SDS011;3707;43.618;25.342;2024-01-06T12:57:27;1.77;;;1.67;;
7332;SDS011;3707;43.618;25.342;2024-01-06T12:59:54;1.70;;;1.60;;
7332;SDS011;3707;43.618;25.342;2024-01-06T13:02:21;1.13;;;1.13;;
7332;SDS011;3707;43.618;25.342;2024-01-06T13:04:47;4.72;;;2.78;;
7332;SDS011;3707;43.618;25.342;2024-01-06T13:07:14;2.33;;;2.03;;
7332;SDS011;3707;43.618;25.342;2024-01-06T13:09:42;1.73;;;1.73;;
7332;SDS011;3707;43.618;25.342;2024-01-06T13:12:09;3.25;;;3.05;;
7332;SDS011;3707;43.618;25.342;2024-01-06T13:14:36;2.45;;;2.25;;
7332;SDS011;3707;43.618;25.342;2024-01-06T13:17:03;4.80;;;3.92;;
7332;SDS011;3707;43.618;25.342;2024-01-06T13:19:30;9.43;;;4.85;;
7332;SDS011;3707;43.618;25.342;2024-01-06T13:21:58;2.08;;;1.98;;
7332;SDS011;3707;43.618;25.342;2024-01-06T13:24:25;2.10;;;1.98;;
7332;SDS011;3707;43.618;25.342;2024-01-06T13:26:53;13.93;;;5.90;;
7332;SDS011;3707;43.618;25.342;2024-01-06T13:29:20;3.92;;;3.67;;
7332;SDS011;3707;43.618;25.342;2024-01-06T13:31:46;2.35;;;2.20;;
7332;SDS011;3707;43.618;25.342;2024-01-06T13:34:13;2.33;;;2.22;;
7332;SDS011;3707;43.618;25.342;2024-01-06T13:36:40;2.28;;;2.17;;
7332;SDS011;3707;43.618;25.342;2024-01-06T13:39:07;3.33;;;3.00;;
7332;SDS011;3707;43.618;25.342;2024-01-06T13:41:34;3.33;;;3.13;;
7332;SDS011;3707;43.618;25.342;2024-01-06T13:44:02;1.65;;;1.65;;
7332;SDS011;3707;43.618;25.342;2024-01-06T13:46:29;3.63;;;2.70;;
7332;SDS011;3707;43.618;25.342;2024-01-06T13:48:56;9.55;;;4.65;;
7332;SDS011;3707;43.618;25.342;2024-01-06T13:51:23;4.30;;;2.75;;
7332;SDS011;3707;43.618;25.342;2024-01-06T13:53:50;5.65;;;3.35;;
7332;SDS011;3707;43.618;25.342;2024-01-06T13:56:17;4.70;;;3.83;;
7332;SDS011;3707;43.618;25.342;2024-01-06T13:58:43;8.38;;;3.72;;
7332;SDS011;3707;43.618;25.342;2024-01-06T14:01:12;10.82;;;3.47;;
7332;SDS011;3707;43.618;25.342;2024-01-06T14:03:38;10.35;;;4.03;;
7332;SDS011;3707;43.618;25.342;2024-01-06T14:06:05;3.28;;;2.97;;
7332;SDS011;3707;43.618;25.342;2024-01-06T14:08:34;7.03;;;3.92;;
7332;SDS011;3707;43.618;25.342;2024-01-06T14:11:00;3.53;;;3.20;;
7332;SDS011;3707;43.618;25.342;2024-01-06T14:13:27;2.55;;;2.22;;
7332;SDS011;3707;43.618;25.342;2024-01-06T14:15:54;2.75;;;2.60;;
7332;SDS011;3707;43.618;25.342;2024-01-06T14:18:23;5.72;;;5.15;;
7332;SDS011;3707;43.618;25.342;2024-01-06T14:20:50;4.22;;;3.92;;
7332;SDS011;3707;43.618;25.342;2024-01-06T14:23:17;11.48;;;5.57;;
7332;SDS011;3707;43.618;25.342;2024-01-06T14:25:45;6.57;;;6.03;;
7332;SDS011;3707;43.618;25.342;2024-01-06T14:28:12;11.05;;;10.13;;
7332;SDS011;3707;43.618;25.342;2024-01-06T14:30:38;20.40;;;8.77;;
7332;SDS011;3707;43.618;25.342;2024-01-06T14:33:05;18.90;;;12.13;;
7332;SDS011;3707;43.618;25.342;2024-01-06T14:35:33;8.98;;;8.32;;
7332;SDS011;3707;43.618;25.342;2024-01-06T14:38:00;6.72;;;6.15;;
7332;SDS011;3707;43.618;25.342;2024-01-06T14:40:27;15.52;;;7.28;;
7332;SDS011;3707;43.618;25.342;2024-01-06T14:42:54;9.80;;;5.40;;
7332;SDS011;3707;43.618;25.342;2024-01-06T14:45:22;5.72;;;4.93;;
7332;SDS011;3707;43.618;25.342;2024-01-06T14:47:49;6.13;;;4.38;;
7332;SDS011;3707;43.618;25.342;2024-01-06T14:50:16;10.45;;;6.75;;
7332;SDS011;3707;43.618;25.342;2024-01-06T14:52:44;5.63;;;5.15;;
7332;SDS011;3707;43.618;25.342;2024-01-06T14:55:11;8.00;;;5.13;;
7332;SDS011;3707;43.618;25.342;2024-01-06T14:57:37;4.13;;;3.38;;
7332;SDS011;3707;43.618;25.342;2024-01-06T15:00:05;3.08;;;2.72;;
7332;SDS011;3707;43.618;25.342;2024-01-06T15:02:35;9.88;;;6.22;;
7332;SDS011;3707;43.618;25.342;2024-01-06T15:05:03;8.07;;;2.97;;
7332;SDS011;3707;43.618;25.342;2024-01-06T15:07:30;5.10;;;4.80;;